createdAt,value
2022-10-19T00:02:11.578Z,102577.69
2022-10-19T00:07:27.022Z,102573.34
2022-10-19T00:12:41.974Z,102575.88
2022-10-19T00:17:57.200Z,102574.13
2022-10-19T00:23:12.172Z,102559.91
2022-10-19T00:28:27.615Z,102566.25
2022-10-19T00:33:43.161Z,102564.47
2022-10-19T00:38:58.182Z,102568.00
2022-10-19T00:44:13.186Z,102564.16
2022-10-19T00:49:28.604Z,102568.19
2022-10-19T00:54:44.225Z,102569.50
2022-10-19T01:00:05.322Z,102564.66
2022-10-19T01:06:07.490Z,102558.31
2022-10-19T01:11:23.651Z,102558.31
2022-10-19T01:16:39.240Z,102556.00
2022-10-19T01:21:54.231Z,102545.34
2022-10-19T01:27:09.511Z,102540.22
2022-10-19T01:32:25.307Z,102538.69
2022-10-19T01:37:40.181Z,102534.09
2022-10-19T01:48:09.998Z,102527.00
2022-10-19T01:53:25.517Z,102522.69
2022-10-19T01:58:41.230Z,102516.31
2022-10-19T02:03:57.212Z,102521.13
2022-10-19T02:09:12.217Z,102518.81
2022-10-19T02:14:27.191Z,102522.91
2022-10-19T02:19:42.203Z,102521.34
2022-10-19T02:24:57.587Z,102528.19
2022-10-19T02:30:13.221Z,102520.09
2022-10-19T02:35:28.512Z,102520.88
2022-10-19T02:40:44.505Z,102524.41
2022-10-19T02:46:00.525Z,102517.31
2022-10-19T02:51:16.217Z,102515.28
2022-10-19T02:56:31.385Z,102513.75
2022-10-19T03:01:46.405Z,102507.41
2022-10-19T03:07:02.195Z,102506.13
2022-10-19T03:12:17.200Z,102502.59
2022-10-19T03:17:32.463Z,102489.88
2022-10-19T03:22:48.583Z,102491.91
2022-10-19T03:28:04.529Z,102489.09
2022-10-19T03:33:20.574Z,102478.97
2022-10-19T03:38:36.199Z,102474.66
2022-10-19T03:43:51.262Z,102472.78
2022-10-19T03:49:06.507Z,102486.63
2022-10-19T03:54:25.016Z,102479.22
2022-10-19T03:59:42.225Z,102476.84
2022-10-19T04:04:57.315Z,102478.03
2022-10-19T04:10:12.234Z,102482.00
2022-10-19T04:15:27.274Z,102484.75
2022-10-19T04:20:42.186Z,102483.44
2022-10-19T04:25:57.257Z,102475.28
2022-10-19T04:31:12.276Z,102475.00
2022-10-19T04:36:27.228Z,102481.53
2022-10-19T04:41:42.504Z,102475.69
2022-10-19T04:46:58.207Z,102478.19
2022-10-19T04:52:13.226Z,102485.50
2022-10-19T04:57:28.213Z,102492.84
2022-10-19T05:02:43.286Z,102491.31
2022-10-19T05:07:58.529Z,102504.97
2022-10-19T05:13:14.185Z,102489.19
2022-10-19T05:18:29.204Z,102473.47
2022-10-19T05:23:44.203Z,102482.31
2022-10-19T05:28:59.297Z,102478.94
2022-10-19T05:34:14.195Z,102474.66
2022-10-19T05:39:29.248Z,102473.56
2022-10-19T05:44:44.255Z,102468.22
2022-10-19T05:49:59.188Z,102458.03
2022-10-19T05:55:14.627Z,102461.81
2022-10-19T06:00:30.202Z,102457.47
2022-10-19T06:05:45.252Z,102450.88
2022-10-19T06:11:00.539Z,102465.78
2022-10-19T06:16:16.203Z,102471.56
2022-10-19T06:21:31.241Z,102468.19
2022-10-19T06:26:46.375Z,102465.63
2022-10-19T06:32:02.263Z,102470.63
2022-10-19T06:37:17.514Z,102468.78
2022-10-19T06:42:33.233Z,102469.75
2022-10-19T06:47:48.958Z,102469.50
2022-10-19T06:53:04.286Z,102474.75
2022-10-19T06:58:19.230Z,102468.16
2022-10-19T07:03:34.236Z,102460.78
2022-10-19T07:08:49.543Z,102456.16
2022-10-19T07:14:05.292Z,102455.88
2022-10-19T07:19:20.255Z,102450.47
2022-10-19T07:24:35.252Z,102452.22
2022-10-19T07:29:50.267Z,102462.59
2022-10-19T07:35:05.230Z,102459.25
2022-10-19T07:40:20.560Z,102463.28
2022-10-19T07:45:36.091Z,102469.34
2022-10-19T07:50:51.261Z,102477.19
2022-10-19T07:56:06.214Z,102464.25
2022-10-19T08:01:21.263Z,102465.50
2022-10-19T08:06:36.003Z,102462.41
2022-10-19T08:11:51.229Z,102473.78
2022-10-19T08:17:06.267Z,102469.44
2022-10-19T08:22:21.256Z,102464.06
2022-10-19T08:32:51.224Z,102467.81
2022-10-19T08:38:06.298Z,102467.53
2022-10-19T08:43:21.236Z,102458.13
2022-10-19T08:48:36.244Z,102455.03
2022-10-19T08:53:51.563Z,102440.84
2022-10-19T08:59:07.217Z,102435.72
2022-10-19T09:04:21.989Z,102428.16
2022-10-19T09:09:37.322Z,102426.63
2022-10-19T09:14:52.215Z,102422.59
2022-10-19T09:20:07.212Z,102417.00
2022-10-19T09:25:22.282Z,102403.56
2022-10-19T09:30:37.237Z,102405.63
2022-10-19T09:35:52.283Z,102400.53
2022-10-19T09:41:07.233Z,102408.22
2022-10-19T09:46:22.263Z,102407.72
2022-10-19T09:51:37.535Z,102400.13
2022-10-19T09:56:53.253Z,102380.94
2022-10-19T10:02:08.242Z,102390.34
2022-10-19T10:07:23.528Z,102384.56
2022-10-19T10:12:39.564Z,102372.94
2022-10-19T10:17:55.238Z,102369.41
2022-10-19T10:23:10.326Z,102364.31
2022-10-19T10:28:25.235Z,102372.41
2022-10-19T10:33:44.662Z,102379.97
2022-10-19T10:39:00.255Z,102374.41
2022-10-19T10:44:15.253Z,102359.78
2022-10-19T10:49:30.001Z,102351.81
2022-10-19T10:54:45.253Z,102351.38
2022-10-19T11:00:00.269Z,102345.72
2022-10-19T11:05:15.255Z,102344.88
2022-10-19T11:10:30.231Z,102315.84
2022-10-19T11:15:45.579Z,102313.63
2022-10-19T11:21:01.279Z,102295.78
2022-10-19T11:26:26.316Z,102293.44
2022-10-19T11:31:42.279Z,102280.69
2022-10-19T11:36:57.259Z,102273.28
2022-10-19T11:42:12.240Z,102274.81
2022-10-19T11:47:27.262Z,102260.78
2022-10-19T11:52:42.233Z,102261.00
2022-10-19T11:57:57.311Z,102247.00
2022-10-19T12:03:12.243Z,102229.00
2022-10-19T12:08:27.312Z,102235.31
2022-10-19T12:13:42.595Z,102220.88
2022-10-19T12:18:58.663Z,102219.16
2022-10-19T12:24:14.258Z,102205.22
2022-10-19T12:29:29.242Z,102188.97
2022-10-19T12:34:44.315Z,102192.06
2022-10-19T12:39:59.590Z,102183.22
2022-10-19T12:45:15.263Z,102173.84
2022-10-19T12:50:30.893Z,102153.56
2022-10-19T12:55:47.244Z,102142.41
2022-10-19T13:01:02.346Z,102136.84
2022-10-19T13:06:17.242Z,102126.47
2022-10-19T13:11:32.600Z,102103.66
2022-10-19T13:16:48.251Z,102094.53
2022-10-19T13:22:03.236Z,102101.88
2022-10-19T13:27:18.340Z,102091.00
2022-10-19T13:32:33.681Z,102082.19
2022-10-19T13:37:49.310Z,102075.84
2022-10-19T13:43:04.297Z,102071.50
2022-10-19T13:48:18.960Z,102061.41
2022-10-19T13:53:34.883Z,102052.56
2022-10-19T13:58:50.239Z,102059.38
2022-10-19T14:04:05.662Z,102055.34
2022-10-19T14:09:21.029Z,102055.25
2022-10-19T14:14:36.278Z,102046.78
2022-10-19T14:19:51.265Z,102054.19
2022-10-19T14:25:06.366Z,102053.19
2022-10-19T14:30:21.239Z,102056.53
2022-10-19T14:35:36.224Z,102064.69
2022-10-19T14:40:51.284Z,102059.56
2022-10-19T14:46:06.290Z,102047.59
2022-10-19T14:51:21.248Z,102049.19
2022-10-19T14:56:36.363Z,102042.88
2022-10-19T15:01:51.685Z,102038.09
2022-10-19T15:07:07.309Z,102033.50
2022-10-19T15:12:22.287Z,102032.75
2022-10-19T15:17:37.282Z,102020.59
2022-10-19T15:22:52.365Z,102008.38
2022-10-19T15:28:07.309Z,101997.50
2022-10-19T15:33:22.287Z,101986.81
2022-10-19T15:38:37.245Z,101965.75
2022-10-19T15:43:52.718Z,101971.34
2022-10-19T15:49:08.257Z,101975.66
2022-10-19T15:54:23.294Z,101961.97
2022-10-19T15:59:38.591Z,101945.97
2022-10-19T16:04:54.694Z,101945.22
2022-10-19T16:10:10.588Z,101934.81
2022-10-19T16:15:26.655Z,101936.34
2022-10-19T16:20:41.601Z,101921.88
2022-10-19T16:25:57.320Z,101909.69
2022-10-19T16:31:12.577Z,101909.22
2022-10-19T16:36:28.580Z,101909.44
2022-10-19T16:41:44.588Z,101909.44
2022-10-19T16:47:00.321Z,101909.44
2022-10-19T16:52:15.555Z,101920.34
2022-10-19T16:57:31.251Z,101914.75
2022-10-19T17:02:46.672Z,101903.59
2022-10-19T17:08:02.572Z,101905.13
2022-10-19T17:13:18.142Z,101898.75
2022-10-19T17:18:33.316Z,101885.59
2022-10-19T17:23:48.360Z,101881.25
2022-10-19T17:29:03.264Z,101884.03
2022-10-19T17:34:18.260Z,101886.59
2022-10-19T17:39:33.610Z,101862.75
2022-10-19T17:44:52.292Z,101869.34
2022-10-19T17:50:07.363Z,101860.19
2022-10-19T18:00:37.782Z,101861.47
2022-10-19T18:05:53.301Z,101857.69
2022-10-19T18:11:08.589Z,101847.78
2022-10-19T18:16:24.296Z,101855.63
2022-10-19T18:21:39.308Z,101859.19
2022-10-19T18:26:54.318Z,101868.31
2022-10-19T18:32:09.747Z,101873.63
2022-10-19T18:37:26.626Z,101857.66
2022-10-19T18:42:42.881Z,101848.28
2022-10-19T18:47:58.355Z,101836.88
2022-10-19T18:53:13.531Z,101834.34
2022-10-19T18:58:29.687Z,101832.81
2022-10-19T19:03:45.301Z,101807.19
2022-10-19T19:09:00.301Z,101801.06
2022-10-19T19:14:15.305Z,101810.22
2022-10-19T19:19:30.628Z,101819.34
2022-10-19T19:24:46.341Z,101800.56
2022-10-19T19:30:01.298Z,101787.88
2022-10-19T19:35:16.431Z,101782.28
2022-10-19T19:40:31.284Z,101762.00
2022-10-19T19:45:46.606Z,101756.19
2022-10-19T19:51:03.583Z,101740.97
2022-10-19T19:56:20.581Z,101721.66
2022-10-19T20:01:36.099Z,101723.69
2022-10-19T20:06:51.363Z,101706.94
2022-10-19T20:12:06.639Z,101705.66
2022-10-19T20:17:22.357Z,101708.47
2022-10-19T20:22:37.317Z,101686.13
2022-10-19T20:27:52.363Z,101692.47
2022-10-19T20:33:07.297Z,101683.84
2022-10-19T20:38:22.264Z,101679.25
2022-10-19T20:43:37.308Z,101673.94
2022-10-19T20:48:52.591Z,101669.13
2022-10-19T20:54:08.611Z,101659.72
2022-10-19T20:59:24.053Z,101640.69
2022-10-19T21:04:39.266Z,101627.69
2022-10-19T21:09:54.377Z,101615.81
2022-10-19T21:15:09.270Z,101638.88
2022-10-19T21:20:24.608Z,101643.19
2022-10-19T21:25:40.312Z,101645.97
2022-10-19T21:30:55.596Z,101634.31
2022-10-19T21:36:11.508Z,101627.69
2022-10-19T21:41:27.297Z,101622.13
2022-10-19T21:46:42.287Z,101620.38
2022-10-19T21:51:57.554Z,101610.44
2022-10-19T21:57:14.118Z,101618.34
2022-10-19T22:02:29.279Z,101612.97
2022-10-19T22:07:44.279Z,101596.47
2022-10-19T22:12:59.694Z,101595.47
2022-10-19T22:18:15.291Z,101585.81
2022-10-19T22:23:30.286Z,101584.53
2022-10-19T22:28:45.265Z,101581.00
2022-10-19T22:34:00.255Z,101571.84
2022-10-19T22:39:15.318Z,101557.91
2022-10-19T22:44:30.291Z,101550.03
2022-10-19T22:49:45.638Z,101537.84
2022-10-19T22:55:01.280Z,101530.00
2022-10-19T23:00:16.311Z,101523.44
2022-10-19T23:05:31.585Z,101498.09
2022-10-19T23:10:47.052Z,101495.56
2022-10-19T23:16:02.144Z,101487.69
2022-10-19T23:21:17.294Z,101491.78
2022-10-19T23:26:32.270Z,101476.28
2022-10-19T23:31:47.617Z,101467.66
2022-10-19T23:37:03.342Z,101457.06
2022-10-19T23:42:18.063Z,101455.00
2022-10-19T23:47:33.505Z,101456.28
2022-10-19T23:52:49.617Z,101457.06
2022-10-19T23:58:05.325Z,101454.00
